sensor_id;sensor_type;location;lat;lon;timestamp;P1;durP1;ratioP1;P2;durP2;ratioP2
63943;SDS011;50121;51.218;7.664;2024-03-23T00:52:25;11.25;;;7.18;;
63943;SDS011;50121;51.218;7.664;2024-03-23T00:54:52;12.27;;;7.40;;
63943;SDS011;50121;51.218;7.664;2024-03-23T00:57:19;10.57;;;6.95;;
63943;SDS011;50121;51.218;7.664;2024-03-23T00:59:46;10.80;;;7.03;;
63943;SDS011;50121;51.218;7.664;2024-03-23T01:02:12;11.88;;;7.18;;
63943;SDS011;50121;51.218;7.664;2024-03-23T01:04:39;11.45;;;7.47;;
63943;SDS011;50121;51.218;7.664;2024-03-23T01:07:06;9.35;;;6.78;;
63943;SDS011;50121;51.218;7.664;2024-03-23T01:09:32;10.73;;;6.50;;
63943;SDS011;50121;51.218;7.664;2024-03-23T01:11:59;8.20;;;6.63;;
63943;SDS011;50121;51.218;7.664;2024-03-23T01:14:27;13.38;;;7.03;;
63943;SDS011;50121;51.218;7.664;2024-03-23T01:16:54;9.68;;;6.32;;
63943;SDS011;50121;51.218;7.664;2024-03-23T01:19:20;9.45;;;6.57;;
63943;SDS011;50121;51.218;7.664;2024-03-23T01:21:47;12.15;;;6.28;;
63943;SDS011;50121;51.218;7.664;2024-03-23T01:24:15;10.32;;;6.50;;
63943;SDS011;50121;51.218;7.664;2024-03-23T01:26:41;7.63;;;5.43;;
63943;SDS011;50121;51.218;7.664;2024-03-23T01:29:08;7.32;;;5.43;;
63943;SDS011;50121;51.218;7.664;2024-03-23T01:31:35;9.38;;;5.97;;
63943;SDS011;50121;51.218;7.664;2024-03-23T01:34:01;9.68;;;6.10;;
63943;SDS011;50121;51.218;7.664;2024-03-23T01:36:28;7.50;;;5.10;;
63943;SDS011;50121;51.218;7.664;2024-03-23T01:38:55;7.68;;;4.88;;
63943;SDS011;50121;51.218;7.664;2024-03-23T01:41:23;5.38;;;4.25;;
63943;SDS011;50121;51.218;7.664;2024-03-23T01:43:50;9.68;;;4.40;;
63943;SDS011;50121;51.218;7.664;2024-03-23T01:46:17;6.57;;;4.50;;
63943;SDS011;50121;51.218;7.664;2024-03-23T01:48:44;6.63;;;4.70;;
63943;SDS011;50121;51.218;7.664;2024-03-23T01:51:12;6.55;;;4.70;;
63943;SDS011;50121;51.218;7.664;2024-03-23T01:53:39;8.95;;;4.60;;
63943;SDS011;50121;51.218;7.664;2024-03-23T01:56:06;9.80;;;5.10;;
63943;SDS011;50121;51.218;7.664;2024-03-23T01:58:33;10.10;;;5.00;;
63943;SDS011;50121;51.218;7.664;2024-03-23T02:00:59;6.63;;;5.22;;
63943;SDS011;50121;51.218;7.664;2024-03-23T02:03:27;10.82;;;5.10;;
63943;SDS011;50121;51.218;7.664;2024-03-23T02:05:54;7.50;;;4.95;;
63943;SDS011;50121;51.218;7.664;2024-03-23T02:08:22;9.57;;;5.40;;
63943;SDS011;50121;51.218;7.664;2024-03-23T02:10:49;7.18;;;4.78;;
63943;SDS011;50121;51.218;7.664;2024-03-23T02:13:17;8.00;;;5.00;;
63943;SDS011;50121;51.218;7.664;2024-03-23T02:15:43;9.95;;;5.30;;
63943;SDS011;50121;51.218;7.664;2024-03-23T02:18:10;9.43;;;5.47;;
63943;SDS011;50121;51.218;7.664;2024-03-23T02:20:37;7.97;;;5.43;;
63943;SDS011;50121;51.218;7.664;2024-03-23T02:23:04;8.60;;;5.45;;
63943;SDS011;50121;51.218;7.664;2024-03-23T02:25:34;8.77;;;5.55;;
63943;SDS011;50121;51.218;7.664;2024-03-23T02:28:00;6.32;;;4.45;;
63943;SDS011;50121;51.218;7.664;2024-03-23T02:30:27;5.90;;;4.28;;
63943;SDS011;50121;51.218;7.664;2024-03-23T02:32:55;5.00;;;4.40;;
63943;SDS011;50121;51.218;7.664;2024-03-23T02:35:22;4.70;;;4.13;;
63943;SDS011;50121;51.218;7.664;2024-03-23T02:37:49;5.20;;;4.70;;
63943;SDS011;50121;51.218;7.664;2024-03-23T02:40:16;8.20;;;5.10;;
63943;SDS011;50121;51.218;7.664;2024-03-23T02:42:43;4.95;;;4.10;;
63943;SDS011;50121;51.218;7.664;2024-03-23T02:45:09;6.13;;;4.75;;
63943;SDS011;50121;51.218;7.664;2024-03-23T02:47:36;5.22;;;4.60;;
63943;SDS011;50121;51.218;7.664;2024-03-23T02:50:03;6.45;;;3.85;;
63943;SDS011;50121;51.218;7.664;2024-03-23T02:52:30;6.25;;;4.28;;
63943;SDS011;50121;51.218;7.664;2024-03-23T02:54:57;5.50;;;4.40;;
63943;SDS011;50121;51.218;7.664;2024-03-23T02:57:23;6.30;;;4.30;;
63943;SDS011;50121;51.218;7.664;2024-03-23T02:59:50;4.88;;;4.45;;
63943;SDS011;50121;51.218;7.664;2024-03-23T03:02:17;5.38;;;4.65;;
63943;SDS011;50121;51.218;7.664;2024-03-23T03:04:43;6.18;;;4.75;;
63943;SDS011;50121;51.218;7.664;2024-03-23T03:07:10;6.43;;;4.55;;
63943;SDS011;50121;51.218;7.664;2024-03-23T03:09:37;4.88;;;4.38;;
63943;SDS011;50121;51.218;7.664;2024-03-23T03:12:08;7.85;;;4.30;;
63943;SDS011;50121;51.218;7.664;2024-03-23T03:14:35;5.47;;;4.30;;
63943;SDS011;50121;51.218;7.664;2024-03-23T03:17:01;6.32;;;4.55;;
63943;SDS011;50121;51.218;7.664;2024-03-23T03:19:29;7.00;;;4.30;;
63943;SDS011;50121;51.218;7.664;2024-03-23T03:21:56;5.30;;;4.20;;
63943;SDS011;50121;51.218;7.664;2024-03-23T03:24:23;4.97;;;4.25;;
63943;SDS011;50121;51.218;7.664;2024-03-23T03:26:50;4.75;;;4.35;;
63943;SDS011;50121;51.218;7.664;2024-03-23T03:29:16;5.10;;;4.50;;
63943;SDS011;50121;51.218;7.664;2024-03-23T03:31:43;8.55;;;4.28;;
63943;SDS011;50121;51.218;7.664;2024-03-23T03:34:10;4.95;;;4.38;;
63943;SDS011;50121;51.218;7.664;2024-03-23T03:36:37;5.63;;;4.32;;
63943;SDS011;50121;51.218;7.664;2024-03-23T03:39:04;5.20;;;3.75;;
63943;SDS011;50121;51.218;7.664;2024-03-23T03:41:31;7.28;;;4.10;;
63943;SDS011;50121;51.218;7.664;2024-03-23T03:43:58;4.85;;;4.32;;
63943;SDS011;50121;51.218;7.664;2024-03-23T03:46:28;7.93;;;4.38;;
63943;SDS011;50121;51.218;7.664;2024-03-23T03:48:54;10.65;;;4.57;;
63943;SDS011;50121;51.218;7.664;2024-03-23T03:51:21;7.63;;;4.22;;
63943;SDS011;50121;51.218;7.664;2024-03-23T03:53:48;4.43;;;3.97;;
63943;SDS011;50121;51.218;7.664;2024-03-23T03:56:14;7.53;;;4.68;;
63943;SDS011;50121;51.218;7.664;2024-03-23T03:58:41;8.50;;;4.60;;
63943;SDS011;50121;51.218;7.664;2024-03-23T04:01:08;5.55;;;4.40;;
63943;SDS011;50121;51.218;7.664;2024-03-23T04:03:34;5.03;;;4.05;;
63943;SDS011;50121;51.218;7.664;2024-03-23T04:06:01;5.25;;;4.53;;
63943;SDS011;50121;51.218;7.664;2024-03-23T04:08:29;5.40;;;4.20;;
63943;SDS011;50121;51.218;7.664;2024-03-23T04:10:55;5.90;;;4.53;;
63943;SDS011;50121;51.218;7.664;2024-03-23T04:13:22;6.80;;;4.43;;
63943;SDS011;50121;51.218;7.664;2024-03-23T04:15:49;7.97;;;4.72;;
63943;SDS011;50121;51.218;7.664;2024-03-23T04:18:19;6.80;;;4.38;;
63943;SDS011;50121;51.218;7.664;2024-03-23T04:20:48;6.53;;;4.47;;
63943;SDS011;50121;51.218;7.664;2024-03-23T04:23:15;7.60;;;4.72;;
63943;SDS011;50121;51.218;7.664;2024-03-23T04:25:42;7.13;;;4.40;;
63943;SDS011;50121;51.218;7.664;2024-03-23T04:28:09;6.72;;;4.82;;
63943;SDS011;50121;51.218;7.664;2024-03-23T04:30:36;10.00;;;4.72;;
63943;SDS011;50121;51.218;7.664;2024-03-23T04:33:02;9.13;;;4.70;;
63943;SDS011;50121;51.218;7.664;2024-03-23T04:35:30;7.95;;;4.60;;
63943;SDS011;50121;51.218;7.664;2024-03-23T04:37:56;7.80;;;4.60;;
63943;SDS011;50121;51.218;7.664;2024-03-23T04:40:25;6.55;;;4.30;;
63943;SDS011;50121;51.218;7.664;2024-03-23T04:42:52;6.43;;;4.70;;
63943;SDS011;50121;51.218;7.664;2024-03-23T04:45:19;7.78;;;4.78;;
63943;SDS011;50121;51.218;7.664;2024-03-23T04:47:45;9.10;;;5.13;;
63943;SDS011;50121;51.218;7.664;2024-03-23T04:50:12;7.97;;;4.13;;
63943;SDS011;50121;51.218;7.664;2024-03-23T04:52:40;8.93;;;5.10;;
63943;SDS011;50121;51.218;7.664;2024-03-23T04:55:08;7.82;;;5.20;;
63943;SDS011;50121;51.218;7.664;2024-03-23T04:57:35;9.93;;;4.85;;
63943;SDS011;50121;51.218;7.664;2024-03-23T05:00:02;6.95;;;4.78;;
63943;SDS011;50121;51.218;7.664;2024-03-23T05:02:38;5.00;;;4.50;;
63943;SDS011;50121;51.218;7.664;2024-03-23T05:05:04;9.38;;;5.07;;
63943;SDS011;50121;51.218;7.664;2024-03-23T05:07:33;9.20;;;5.50;;
63943;SDS011;50121;51.218;7.664;2024-03-23T05:09:59;8.50;;;4.97;;
63943;SDS011;50121;51.218;7.664;2024-03-23T05:12:26;7.82;;;5.28;;
63943;SDS011;50121;51.218;7.664;2024-03-23T05:14:53;9.57;;;5.22;;
63943;SDS011;50121;51.218;7.664;2024-03-23T05:17:20;6.93;;;5.28;;
63943;SDS011;50121;51.218;7.664;2024-03-23T05:19:46;7.22;;;5.07;;
63943;SDS011;50121;51.218;7.664;2024-03-23T05:22:13;9.20;;;5.30;;
63943;SDS011;50121;51.218;7.664;2024-03-23T05:24:39;8.13;;;5.55;;
63943;SDS011;50121;51.218;7.664;2024-03-23T05:27:06;6.50;;;4.75;;
63943;SDS011;50121;51.218;7.664;2024-03-23T05:29:33;8.75;;;5.65;;
63943;SDS011;50121;51.218;7.664;2024-03-23T05:32:00;10.98;;;6.70;;
63943;SDS011;50121;51.218;7.664;2024-03-23T05:34:27;8.57;;;5.10;;
63943;SDS011;50121;51.218;7.664;2024-03-23T05:36:55;8.75;;;5.40;;
63943;SDS011;50121;51.218;7.664;2024-03-23T05:39:21;8.85;;;5.07;;
63943;SDS011;50121;51.218;7.664;2024-03-23T05:41:48;8.45;;;4.90;;
63943;SDS011;50121;51.218;7.664;2024-03-23T05:44:15;9.40;;;4.95;;
63943;SDS011;50121;51.218;7.664;2024-03-23T05:46:41;9.35;;;4.70;;
63943;SDS011;50121;51.218;7.664;2024-03-23T05:49:14;11.00;;;4.90;;
63943;SDS011;50121;51.218;7.664;2024-03-23T05:51:41;12.52;;;5.43;;
63943;SDS011;50121;51.218;7.664;2024-03-23T05:54:07;9.82;;;7.15;;
63943;SDS011;50121;51.218;7.664;2024-03-23T05:56:34;10.77;;;8.02;;
63943;SDS011;50121;51.218;7.664;2024-03-23T05:59:01;9.63;;;4.72;;
63943;SDS011;50121;51.218;7.664;2024-03-23T06:01:30;7.35;;;4.75;;
63943;SDS011;50121;51.218;7.664;2024-03-23T06:03:58;12.65;;;5.60;;
63943;SDS011;50121;51.218;7.664;2024-03-23T06:06:27;11.75;;;6.95;;
63943;SDS011;50121;51.218;7.664;2024-03-23T06:08:55;12.20;;;5.70;;
63943;SDS011;50121;51.218;7.664;2024-03-23T06:11:22;13.00;;;6.20;;
63943;SDS011;50121;51.218;7.664;2024-03-23T06:13:49;10.48;;;5.70;;
63943;SDS011;50121;51.218;7.664;2024-03-23T06:16:16;11.98;;;6.07;;
63943;SDS011;50121;51.218;7.664;2024-03-23T06:18:49;9.52;;;5.57;;
63943;SDS011;50121;51.218;7.664;2024-03-23T06:21:16;10.70;;;6.03;;
63943;SDS011;50121;51.218;7.664;2024-03-23T06:23:43;15.57;;;6.13;;
63943;SDS011;50121;51.218;7.664;2024-03-23T06:26:13;15.30;;;6.40;;
63943;SDS011;50121;51.218;7.664;2024-03-23T06:28:40;14.23;;;6.55;;
63943;SDS011;50121;51.218;7.664;2024-03-23T06:31:10;15.63;;;6.95;;
63943;SDS011;50121;51.218;7.664;2024-03-23T06:33:36;10.32;;;6.50;;
63943;SDS011;50121;51.218;7.664;2024-03-23T06:36:04;13.52;;;8.75;;
63943;SDS011;50121;51.218;7.664;2024-03-23T06:38:31;10.60;;;6.40;;
63943;SDS011;50121;51.218;7.664;2024-03-23T06:40:58;8.60;;;5.78;;
63943;SDS011;50121;51.218;7.664;2024-03-23T06:43:25;7.13;;;5.30;;
63943;SDS011;50121;51.218;7.664;2024-03-23T06:45:55;7.20;;;5.07;;
63943;SDS011;50121;51.218;7.664;2024-03-23T06:48:22;6.05;;;4.93;;
63943;SDS011;50121;51.218;7.664;2024-03-23T06:50:49;6.10;;;5.20;;
63943;SDS011;50121;51.218;7.664;2024-03-23T06:53:16;5.95;;;5.22;;
63943;SDS011;50121;51.218;7.664;2024-03-23T06:55:53;6.25;;;5.13;;
63943;SDS011;50121;51.218;7.664;2024-03-23T06:58:21;7.75;;;5.55;;
63943;SDS011;50121;51.218;7.664;2024-03-23T07:00:48;5.93;;;4.80;;
63943;SDS011;50121;51.218;7.664;2024-03-23T07:03:16;5.43;;;4.93;;
63943;SDS011;50121;51.218;7.664;2024-03-23T07:05:43;5.40;;;4.68;;
63943;SDS011;50121;51.218;7.664;2024-03-23T07:08:11;6.10;;;4.70;;
63943;SDS011;50121;51.218;7.664;2024-03-23T07:10:41;6.10;;;4.90;;
63943;SDS011;50121;51.218;7.664;2024-03-23T07:13:12;5.30;;;4.80;;
63943;SDS011;50121;51.218;7.664;2024-03-23T07:15:39;5.68;;;5.13;;
63943;SDS011;50121;51.218;7.664;2024-03-23T07:18:06;14.70;;;9.85;;
63943;SDS011;50121;51.218;7.664;2024-03-23T07:20:33;5.80;;;5.20;;
63943;SDS011;50121;51.218;7.664;2024-03-23T07:23:00;5.88;;;5.25;;
63943;SDS011;50121;51.218;7.664;2024-03-23T07:25:26;5.63;;;5.00;;
63943;SDS011;50121;51.218;7.664;2024-03-23T07:27:55;5.90;;;5.22;;
63943;SDS011;50121;51.218;7.664;2024-03-23T07:30:21;6.22;;;5.30;;
63943;SDS011;50121;51.218;7.664;2024-03-23T07:32:48;8.52;;;5.18;;
63943;SDS011;50121;51.218;7.664;2024-03-23T07:35:15;6.03;;;4.88;;
63943;SDS011;50121;51.218;7.664;2024-03-23T07:37:43;6.13;;;5.43;;
63943;SDS011;50121;51.218;7.664;2024-03-23T07:40:10;7.55;;;5.60;;
63943;SDS011;50121;51.218;7.664;2024-03-23T07:42:40;6.15;;;5.55;;
63943;SDS011;50121;51.218;7.664;2024-03-23T07:45:07;7.50;;;5.50;;
63943;SDS011;50121;51.218;7.664;2024-03-23T07:47:35;10.68;;;6.25;;
63943;SDS011;50121;51.218;7.664;2024-03-23T07:50:02;7.38;;;5.88;;
63943;SDS011;50121;51.218;7.664;2024-03-23T07:52:28;7.40;;;6.20;;
63943;SDS011;50121;51.218;7.664;2024-03-23T07:54:56;9.20;;;6.18;;
63943;SDS011;50121;51.218;7.664;2024-03-23T07:57:26;12.63;;;6.88;;
63943;SDS011;50121;51.218;7.664;2024-03-23T07:59:53;9.95;;;6.57;;
63943;SDS011;50121;51.218;7.664;2024-03-23T08:02:20;10.57;;;6.43;;
63943;SDS011;50121;51.218;7.664;2024-03-23T08:04:47;14.50;;;6.53;;
63943;SDS011;50121;51.218;7.664;2024-03-23T08:07:14;9.73;;;6.40;;
63943;SDS011;50121;51.218;7.664;2024-03-23T08:09:41;10.82;;;6.55;;
63943;SDS011;50121;51.218;7.664;2024-03-23T08:12:08;10.75;;;6.85;;
63943;SDS011;50121;51.218;7.664;2024-03-23T08:14:35;11.60;;;5.78;;
63943;SDS011;50121;51.218;7.664;2024-03-23T08:17:02;9.82;;;6.82;;
63943;SDS011;50121;51.218;7.664;2024-03-23T08:19:29;10.43;;;6.40;;
63943;SDS011;50121;51.218;7.664;2024-03-23T08:21:56;10.95;;;6.63;;
63943;SDS011;50121;51.218;7.664;2024-03-23T08:24:22;12.82;;;7.13;;
63943;SDS011;50121;51.218;7.664;2024-03-23T08:26:49;11.90;;;7.05;;
63943;SDS011;50121;51.218;7.664;2024-03-23T08:29:16;12.25;;;6.50;;
63943;SDS011;50121;51.218;7.664;2024-03-23T08:31:43;9.93;;;5.85;;
63943;SDS011;50121;51.218;7.664;2024-03-23T08:34:11;9.98;;;5.95;;
63943;SDS011;50121;51.218;7.664;2024-03-23T08:36:38;11.85;;;6.97;;
63943;SDS011;50121;51.218;7.664;2024-03-23T08:39:08;12.48;;;6.18;;
63943;SDS011;50121;51.218;7.664;2024-03-23T08:41:35;9.98;;;6.00;;
63943;SDS011;50121;51.218;7.664;2024-03-23T08:44:02;13.05;;;6.78;;
63943;SDS011;50121;51.218;7.664;2024-03-23T08:46:29;15.35;;;6.85;;
63943;SDS011;50121;51.218;7.664;2024-03-23T08:48:56;15.60;;;7.18;;
63943;SDS011;50121;51.218;7.664;2024-03-23T08:51:23;14.32;;;6.82;;
63943;SDS011;50121;51.218;7.664;2024-03-23T08:53:50;14.95;;;6.10;;
63943;SDS011;50121;51.218;7.664;2024-03-23T08:56:17;10.68;;;6.72;;
63943;SDS011;50121;51.218;7.664;2024-03-23T09:03:24;12.00;;;7.40;;
63943;SDS011;50121;51.218;7.664;2024-03-23T09:05:52;12.27;;;7.72;;
63943;SDS011;50121;51.218;7.664;2024-03-23T09:08:20;11.35;;;7.00;;
63943;SDS011;50121;51.218;7.664;2024-03-23T09:10:47;12.80;;;7.32;;
63943;SDS011;50121;51.218;7.664;2024-03-23T09:13:14;16.33;;;7.43;;
63943;SDS011;50121;51.218;7.664;2024-03-23T09:15:46;12.98;;;7.57;;
63943;SDS011;50121;51.218;7.664;2024-03-23T09:18:16;9.82;;;6.03;;
63943;SDS011;50121;51.218;7.664;2024-03-23T09:20:43;17.77;;;7.32;;
63943;SDS011;50121;51.218;7.664;2024-03-23T09:23:10;11.95;;;6.88;;
63943;SDS011;50121;51.218;7.664;2024-03-23T09:25:37;12.57;;;6.40;;
63943;SDS011;50121;51.218;7.664;2024-03-23T09:28:05;12.65;;;6.22;;
63943;SDS011;50121;51.218;7.664;2024-03-23T09:30:32;14.05;;;6.90;;
63943;SDS011;50121;51.218;7.664;2024-03-23T09:32:59;8.35;;;6.45;;
63943;SDS011;50121;51.218;7.664;2024-03-23T09:35:27;10.70;;;7.45;;
63943;SDS011;50121;51.218;7.664;2024-03-23T09:37:54;14.18;;;6.75;;
63943;SDS011;50121;51.218;7.664;2024-03-23T09:40:21;14.25;;;7.05;;
63943;SDS011;50121;51.218;7.664;2024-03-23T09:42:51;12.38;;;7.82;;
63943;SDS011;50121;51.218;7.664;2024-03-23T09:45:24;11.77;;;6.10;;
63943;SDS011;50121;51.218;7.664;2024-03-23T09:47:54;12.15;;;7.13;;
63943;SDS011;50121;51.218;7.664;2024-03-23T09:50:21;12.70;;;5.97;;
63943;SDS011;50121;51.218;7.664;2024-03-23T09:52:49;7.15;;;4.53;;
63943;SDS011;50121;51.218;7.664;2024-03-23T09:55:16;3.67;;;3.47;;
63943;SDS011;50121;51.218;7.664;2024-03-23T09:57:43;3.75;;;3.45;;
63943;SDS011;50121;51.218;7.664;2024-03-23T10:00:10;3.40;;;3.20;;
63943;SDS011;50121;51.218;7.664;2024-03-23T10:02:38;3.90;;;3.58;;
63943;SDS011;50121;51.218;7.664;2024-03-23T10:05:20;3.80;;;3.50;;
63943;SDS011;50121;51.218;7.664;2024-03-23T10:07:50;3.90;;;3.60;;
63943;SDS011;50121;51.218;7.664;2024-03-23T10:10:17;4.10;;;3.90;;
63943;SDS011;50121;51.218;7.664;2024-03-23T10:12:48;4.57;;;4.18;;
63943;SDS011;50121;51.218;7.664;2024-03-23T10:17:45;5.22;;;4.35;;
63943;SDS011;50121;51.218;7.664;2024-03-23T10:20:12;4.80;;;4.43;;
63943;SDS011;50121;51.218;7.664;2024-03-23T10:22:39;6.75;;;4.68;;
63943;SDS011;50121;51.218;7.664;2024-03-23T10:25:09;7.70;;;4.82;;
63943;SDS011;50121;51.218;7.664;2024-03-23T10:27:37;6.15;;;4.88;;
63943;SDS011;50121;51.218;7.664;2024-03-23T10:30:07;5.95;;;5.18;;
63943;SDS011;50121;51.218;7.664;2024-03-23T10:32:35;7.00;;;5.10;;
63943;SDS011;50121;51.218;7.664;2024-03-23T10:35:17;6.53;;;5.20;;
63943;SDS011;50121;51.218;7.664;2024-03-23T10:37:45;6.68;;;5.65;;
63943;SDS011;50121;51.218;7.664;2024-03-23T10:40:13;5.70;;;5.15;;
63943;SDS011;50121;51.218;7.664;2024-03-23T10:42:40;5.75;;;5.18;;
63943;SDS011;50121;51.218;7.664;2024-03-23T10:45:07;6.18;;;5.32;;
63943;SDS011;50121;51.218;7.664;2024-03-23T10:47:35;6.65;;;5.95;;
63943;SDS011;50121;51.218;7.664;2024-03-23T10:50:03;8.23;;;5.80;;
63943;SDS011;50121;51.218;7.664;2024-03-23T10:52:34;8.40;;;5.28;;
63943;SDS011;50121;51.218;7.664;2024-03-23T10:55:04;9.25;;;5.90;;
63943;SDS011;50121;51.218;7.664;2024-03-23T10:57:38;6.10;;;5.50;;
63943;SDS011;50121;51.218;7.664;2024-03-23T11:00:07;10.27;;;6.75;;
63943;SDS011;50121;51.218;7.664;2024-03-23T11:02:34;9.32;;;6.00;;
63943;SDS011;50121;51.218;7.664;2024-03-23T11:07:53;6.50;;;5.90;;
63943;SDS011;50121;51.218;7.664;2024-03-23T11:10:38;6.18;;;5.72;;
63943;SDS011;50121;51.218;7.664;2024-03-23T11:13:21;6.53;;;5.93;;
63943;SDS011;50121;51.218;7.664;2024-03-23T11:15:49;7.38;;;6.13;;
63943;SDS011;50121;51.218;7.664;2024-03-23T11:18:20;8.35;;;6.40;;
63943;SDS011;50121;51.218;7.664;2024-03-23T11:20:47;10.73;;;6.97;;
63943;SDS011;50121;51.218;7.664;2024-03-23T11:23:29;9.50;;;7.20;;
63943;SDS011;50121;51.218;7.664;2024-03-23T11:25:56;9.52;;;6.75;;
63943;SDS011;50121;51.218;7.664;2024-03-23T11:28:22;8.75;;;6.70;;
63943;SDS011;50121;51.218;7.664;2024-03-23T11:30:49;8.93;;;6.60;;
63943;SDS011;50121;51.218;7.664;2024-03-23T11:33:16;11.07;;;7.10;;
63943;SDS011;50121;51.218;7.664;2024-03-23T11:35:43;9.95;;;6.75;;
63943;SDS011;50121;51.218;7.664;2024-03-23T11:38:13;7.78;;;6.47;;
63943;SDS011;50121;51.218;7.664;2024-03-23T11:43:08;5.30;;;4.80;;
63943;SDS011;50121;51.218;7.664;2024-03-23T11:45:37;5.82;;;4.43;;
63943;SDS011;50121;51.218;7.664;2024-03-23T11:50:40;6.60;;;4.90;;
63943;SDS011;50121;51.218;7.664;2024-03-23T11:58:17;5.50;;;4.80;;
63943;SDS011;50121;51.218;7.664;2024-03-23T12:03:21;6.10;;;5.50;;
63943;SDS011;50121;51.218;7.664;2024-03-23T12:05:52;6.20;;;5.65;;
63943;SDS011;50121;51.218;7.664;2024-03-23T12:11:04;6.05;;;5.68;;
63943;SDS011;50121;51.218;7.664;2024-03-23T12:13:32;5.85;;;5.53;;
63943;SDS011;50121;51.218;7.664;2024-03-23T12:18:39;6.30;;;5.70;;
63943;SDS011;50121;51.218;7.664;2024-03-23T12:21:06;6.18;;;5.78;;
63943;SDS011;50121;51.218;7.664;2024-03-23T12:23:34;5.97;;;5.45;;
63943;SDS011;50121;51.218;7.664;2024-03-23T12:26:02;5.78;;;5.00;;
63943;SDS011;50121;51.218;7.664;2024-03-23T12:28:29;8.70;;;6.50;;
63943;SDS011;50121;51.218;7.664;2024-03-23T12:30:55;8.93;;;6.30;;
63943;SDS011;50121;51.218;7.664;2024-03-23T12:33:22;6.80;;;6.20;;
63943;SDS011;50121;51.218;7.664;2024-03-23T12:35:49;6.75;;;6.20;;
63943;SDS011;50121;51.218;7.664;2024-03-23T12:38:17;7.18;;;6.22;;
63943;SDS011;50121;51.218;7.664;2024-03-23T12:40:50;6.65;;;6.00;;
63943;SDS011;50121;51.218;7.664;2024-03-23T12:43:18;7.15;;;6.45;;
63943;SDS011;50121;51.218;7.664;2024-03-23T12:45:46;6.57;;;6.07;;
63943;SDS011;50121;51.218;7.664;2024-03-23T12:48:13;6.97;;;6.45;;
63943;SDS011;50121;51.218;7.664;2024-03-23T12:50:40;9.63;;;6.88;;
63943;SDS011;50121;51.218;7.664;2024-03-23T12:53:09;6.70;;;6.18;;
63943;SDS011;50121;51.218;7.664;2024-03-23T12:55:36;5.22;;;4.80;;
63943;SDS011;50121;51.218;7.664;2024-03-23T12:58:05;4.90;;;4.50;;
63943;SDS011;50121;51.218;7.664;2024-03-23T13:00:31;4.80;;;4.50;;
63943;SDS011;50121;51.218;7.664;2024-03-23T13:02:58;7.18;;;4.80;;
63943;SDS011;50121;51.218;7.664;2024-03-23T13:05:25;5.50;;;5.10;;
63943;SDS011;50121;51.218;7.664;2024-03-23T13:07:52;5.30;;;4.85;;
63943;SDS011;50121;51.218;7.664;2024-03-23T13:10:19;5.10;;;4.80;;
63943;SDS011;50121;51.218;7.664;2024-03-23T13:12:46;5.20;;;4.80;;
63943;SDS011;50121;51.218;7.664;2024-03-23T13:15:13;5.95;;;5.55;;
63943;SDS011;50121;51.218;7.664;2024-03-23T13:17:42;5.18;;;4.88;;
63943;SDS011;50121;51.218;7.664;2024-03-23T13:20:10;5.82;;;5.35;;
63943;SDS011;50121;51.218;7.664;2024-03-23T13:22:40;5.40;;;5.00;;
63943;SDS011;50121;51.218;7.664;2024-03-23T13:25:07;5.60;;;5.15;;
63943;SDS011;50121;51.218;7.664;2024-03-23T13:27:34;6.93;;;5.63;;
63943;SDS011;50121;51.218;7.664;2024-03-23T13:30:01;6.28;;;5.88;;
63943;SDS011;50121;51.218;7.664;2024-03-23T13:32:29;6.03;;;5.50;;
63943;SDS011;50121;51.218;7.664;2024-03-23T13:34:56;6.43;;;5.88;;
63943;SDS011;50121;51.218;7.664;2024-03-23T13:37:23;6.50;;;5.90;;
63943;SDS011;50121;51.218;7.664;2024-03-23T13:39:50;6.13;;;5.55;;
63943;SDS011;50121;51.218;7.664;2024-03-23T13:42:17;6.47;;;5.97;;
63943;SDS011;50121;51.218;7.664;2024-03-23T13:44:43;6.88;;;6.38;;
63943;SDS011;50121;51.218;7.664;2024-03-23T13:47:10;6.22;;;5.82;;
63943;SDS011;50121;51.218;7.664;2024-03-23T13:49:37;5.88;;;5.47;;
63943;SDS011;50121;51.218;7.664;2024-03-23T13:52:03;5.80;;;5.50;;
63943;SDS011;50121;51.218;7.664;2024-03-23T13:54:30;5.63;;;5.20;;
63943;SDS011;50121;51.218;7.664;2024-03-23T13:56:57;5.97;;;5.57;;
63943;SDS011;50121;51.218;7.664;2024-03-23T13:59:24;5.75;;;5.35;;
63943;SDS011;50121;51.218;7.664;2024-03-23T14:01:51;8.10;;;5.78;;
63943;SDS011;50121;51.218;7.664;2024-03-23T14:04:18;6.60;;;6.00;;
63943;SDS011;50121;51.218;7.664;2024-03-23T14:06:46;6.75;;;6.25;;
63943;SDS011;50121;51.218;7.664;2024-03-23T14:09:13;6.80;;;6.40;;
63943;SDS011;50121;51.218;7.664;2024-03-23T14:11:41;6.68;;;6.18;;
63943;SDS011;50121;51.218;7.664;2024-03-23T14:14:11;7.57;;;6.88;;
63943;SDS011;50121;51.218;7.664;2024-03-23T14:16:38;6.53;;;5.93;;
63943;SDS011;50121;51.218;7.664;2024-03-23T14:19:05;7.60;;;7.00;;
63943;SDS011;50121;51.218;7.664;2024-03-23T14:21:31;6.40;;;5.90;;
63943;SDS011;50121;51.218;7.664;2024-03-23T14:24:00;6.38;;;5.88;;
63943;SDS011;50121;51.218;7.664;2024-03-23T14:26:27;6.25;;;5.70;;
63943;SDS011;50121;51.218;7.664;2024-03-23T14:28:53;6.97;;;5.75;;
63943;SDS011;50121;51.218;7.664;2024-03-23T14:31:20;6.47;;;5.82;;
63943;SDS011;50121;51.218;7.664;2024-03-23T14:33:47;5.93;;;5.53;;
63943;SDS011;50121;51.218;7.664;2024-03-23T14:36:16;6.10;;;5.70;;
63943;SDS011;50121;51.218;7.664;2024-03-23T14:38:49;6.25;;;5.75;;
63943;SDS011;50121;51.218;7.664;2024-03-23T14:41:16;6.63;;;6.13;;
63943;SDS011;50121;51.218;7.664;2024-03-23T14:43:43;7.22;;;6.82;;
63943;SDS011;50121;51.218;7.664;2024-03-23T14:46:13;7.57;;;7.07;;
63943;SDS011;50121;51.218;7.664;2024-03-23T14:48:40;6.63;;;6.22;;
63943;SDS011;50121;51.218;7.664;2024-03-23T14:51:07;6.50;;;6.00;;
63943;SDS011;50121;51.218;7.664;2024-03-23T14:53:35;6.63;;;6.07;;
63943;SDS011;50121;51.218;7.664;2024-03-23T14:56:02;6.93;;;6.38;;
63943;SDS011;50121;51.218;7.664;2024-03-23T14:58:31;7.07;;;6.47;;
63943;SDS011;50121;51.218;7.664;2024-03-23T15:01:01;7.72;;;7.03;;
63943;SDS011;50121;51.218;7.664;2024-03-23T15:03:29;7.05;;;6.55;;
63943;SDS011;50121;51.218;7.664;2024-03-23T15:05:56;6.90;;;6.38;;
63943;SDS011;50121;51.218;7.664;2024-03-23T15:08:23;6.97;;;6.50;;
63943;SDS011;50121;51.218;7.664;2024-03-23T15:10:50;6.68;;;6.28;;
63943;SDS011;50121;51.218;7.664;2024-03-23T15:13:17;6.70;;;6.30;;
63943;SDS011;50121;51.218;7.664;2024-03-23T15:15:44;6.88;;;6.47;;
63943;SDS011;50121;51.218;7.664;2024-03-23T15:18:11;6.88;;;6.47;;
63943;SDS011;50121;51.218;7.664;2024-03-23T15:20:39;7.20;;;6.70;;
63943;SDS011;50121;51.218;7.664;2024-03-23T15:23:06;7.10;;;6.60;;
63943;SDS011;50121;51.218;7.664;2024-03-23T15:25:33;7.40;;;6.65;;
63943;SDS011;50121;51.218;7.664;2024-03-23T15:28:00;6.82;;;6.30;;
63943;SDS011;50121;51.218;7.664;2024-03-23T15:30:28;7.00;;;6.30;;
63943;SDS011;50121;51.218;7.664;2024-03-23T15:32:55;6.82;;;6.32;;
63943;SDS011;50121;51.218;7.664;2024-03-23T15:35:22;6.80;;;6.38;;
63943;SDS011;50121;51.218;7.664;2024-03-23T15:37:50;6.60;;;6.10;;
63943;SDS011;50121;51.218;7.664;2024-03-23T15:40:16;7.07;;;6.55;;
63943;SDS011;50121;51.218;7.664;2024-03-23T15:42:43;6.93;;;6.47;;
63943;SDS011;50121;51.218;7.664;2024-03-23T15:45:10;6.50;;;6.10;;
63943;SDS011;50121;51.218;7.664;2024-03-23T15:47:37;7.10;;;6.40;;
63943;SDS011;50121;51.218;7.664;2024-03-23T15:50:04;6.75;;;6.25;;
63943;SDS011;50121;51.218;7.664;2024-03-23T15:52:37;7.35;;;6.75;;
63943;SDS011;50121;51.218;7.664;2024-03-23T15:55:04;6.70;;;6.20;;
63943;SDS011;50121;51.218;7.664;2024-03-23T15:57:36;6.18;;;5.68;;
63943;SDS011;50121;51.218;7.664;2024-03-23T16:00:03;7.00;;;6.30;;
63943;SDS011;50121;51.218;7.664;2024-03-23T16:02:39;6.40;;;5.90;;
63943;SDS011;50121;51.218;7.664;2024-03-23T16:05:06;6.40;;;5.80;;
63943;SDS011;50121;51.218;7.664;2024-03-23T16:07:37;6.35;;;5.85;;